sensor_id;sensor_type;location;lat;lon;timestamp;P1;durP1;ratioP1;P2;durP2;ratioP2
12675;SDS011;63820;65.654;21.944;2023-09-08T00:00:37;7.67;;;3.97;;
12675;SDS011;63820;65.654;21.944;2023-09-08T00:03:21;7.33;;;3.77;;
12675;SDS011;63820;65.654;21.944;2023-09-08T00:06:05;7.43;;;3.83;;
12675;SDS011;63820;65.654;21.944;2023-09-08T00:08:49;7.80;;;4.10;;
12675;SDS011;63820;65.654;21.944;2023-09-08T00:11:33;5.93;;;4.17;;
12675;SDS011;63820;65.654;21.944;2023-09-08T00:14:18;7.37;;;4.03;;
12675;SDS011;63820;65.654;21.944;2023-09-08T00:17:02;7.17;;;3.87;;
12675;SDS011;63820;65.654;21.944;2023-09-08T00:19:47;7.10;;;4.10;;
12675;SDS011;63820;65.654;21.944;2023-09-08T00:22:31;8.43;;;4.03;;
12675;SDS011;63820;65.654;21.944;2023-09-08T00:25:15;6.43;;;3.77;;
12675;SDS011;63820;65.654;21.944;2023-09-08T00:27:58;7.03;;;3.93;;
12675;SDS011;63820;65.654;21.944;2023-09-08T00:30:42;9.57;;;4.17;;
12675;SDS011;63820;65.654;21.944;2023-09-08T00:33:27;8.30;;;4.20;;
12675;SDS011;63820;65.654;21.944;2023-09-08T00:36:11;5.40;;;3.60;;
12675;SDS011;63820;65.654;21.944;2023-09-08T00:38:55;6.63;;;3.33;;
12675;SDS011;63820;65.654;21.944;2023-09-08T00:41:39;5.80;;;3.40;;
12675;SDS011;63820;65.654;21.944;2023-09-08T00:44:23;7.03;;;3.30;;
12675;SDS011;63820;65.654;21.944;2023-09-08T00:47:07;7.07;;;3.40;;
12675;SDS011;63820;65.654;21.944;2023-09-08T00:49:51;8.13;;;3.50;;
12675;SDS011;63820;65.654;21.944;2023-09-08T00:52:35;5.57;;;2.77;;
12675;SDS011;63820;65.654;21.944;2023-09-08T00:55:20;6.23;;;2.80;;
12675;SDS011;63820;65.654;21.944;2023-09-08T00:58:04;6.03;;;3.07;;
12675;SDS011;63820;65.654;21.944;2023-09-08T01:00:47;4.97;;;2.60;;
12675;SDS011;63820;65.654;21.944;2023-09-08T01:03:32;4.80;;;2.77;;
12675;SDS011;63820;65.654;21.944;2023-09-08T01:06:16;3.73;;;2.33;;
12675;SDS011;63820;65.654;21.944;2023-09-08T01:09:01;4.27;;;2.73;;
12675;SDS011;63820;65.654;21.944;2023-09-08T01:11:45;3.40;;;2.20;;
12675;SDS011;63820;65.654;21.944;2023-09-08T01:14:30;4.23;;;2.53;;
12675;SDS011;63820;65.654;21.944;2023-09-08T01:17:14;3.43;;;2.47;;
12675;SDS011;63820;65.654;21.944;2023-09-08T01:20:00;3.63;;;2.23;;
12675;SDS011;63820;65.654;21.944;2023-09-08T01:26:04;5.80;;;3.00;;
12675;SDS011;63820;65.654;21.944;2023-09-08T01:28:52;5.57;;;2.90;;
12675;SDS011;63820;65.654;21.944;2023-09-08T01:31:38;4.67;;;3.20;;
12675;SDS011;63820;65.654;21.944;2023-09-08T01:34:23;6.40;;;3.20;;
12675;SDS011;63820;65.654;21.944;2023-09-08T01:37:07;7.03;;;3.33;;
12675;SDS011;63820;65.654;21.944;2023-09-08T01:39:51;5.93;;;3.67;;
12675;SDS011;63820;65.654;21.944;2023-09-08T01:42:36;5.83;;;3.83;;
12675;SDS011;63820;65.654;21.944;2023-09-08T01:45:21;7.83;;;3.73;;
12675;SDS011;63820;65.654;21.944;2023-09-08T01:48:05;5.77;;;3.70;;
12675;SDS011;63820;65.654;21.944;2023-09-08T01:50:50;5.00;;;3.00;;
12675;SDS011;63820;65.654;21.944;2023-09-08T01:53:34;4.40;;;3.07;;
12675;SDS011;63820;65.654;21.944;2023-09-08T01:56:18;5.00;;;2.83;;
12675;SDS011;63820;65.654;21.944;2023-09-08T01:59:02;3.83;;;2.90;;
12675;SDS011;63820;65.654;21.944;2023-09-08T02:01:46;4.27;;;3.00;;
12675;SDS011;63820;65.654;21.944;2023-09-08T02:04:30;3.50;;;2.67;;
12675;SDS011;63820;65.654;21.944;2023-09-08T02:07:14;4.10;;;2.60;;
12675;SDS011;63820;65.654;21.944;2023-09-08T02:09:58;5.10;;;2.80;;
12675;SDS011;63820;65.654;21.944;2023-09-08T02:12:42;4.30;;;2.73;;
12675;SDS011;63820;65.654;21.944;2023-09-08T02:15:26;4.07;;;2.60;;
12675;SDS011;63820;65.654;21.944;2023-09-08T02:18:10;3.30;;;2.53;;
12675;SDS011;63820;65.654;21.944;2023-09-08T02:20:55;4.07;;;2.50;;
12675;SDS011;63820;65.654;21.944;2023-09-08T02:23:39;4.87;;;2.30;;
12675;SDS011;63820;65.654;21.944;2023-09-08T02:26:23;3.37;;;2.33;;
12675;SDS011;63820;65.654;21.944;2023-09-08T02:29:07;3.30;;;2.60;;
12675;SDS011;63820;65.654;21.944;2023-09-08T02:31:51;4.87;;;3.10;;
12675;SDS011;63820;65.654;21.944;2023-09-08T02:34:36;5.33;;;2.90;;
12675;SDS011;63820;65.654;21.944;2023-09-08T02:37:23;4.60;;;2.63;;
12675;SDS011;63820;65.654;21.944;2023-09-08T02:40:07;2.67;;;2.20;;
12675;SDS011;63820;65.654;21.944;2023-09-08T02:42:51;3.20;;;2.50;;
12675;SDS011;63820;65.654;21.944;2023-09-08T02:45:35;3.90;;;2.20;;
12675;SDS011;63820;65.654;21.944;2023-09-08T02:48:19;3.27;;;2.40;;
12675;SDS011;63820;65.654;21.944;2023-09-08T02:51:03;3.10;;;2.27;;
12675;SDS011;63820;65.654;21.944;2023-09-08T02:53:48;3.30;;;2.13;;
12675;SDS011;63820;65.654;21.944;2023-09-08T02:56:32;2.60;;;1.93;;
12675;SDS011;63820;65.654;21.944;2023-09-08T02:59:16;2.43;;;2.00;;
12675;SDS011;63820;65.654;21.944;2023-09-08T03:02:00;2.50;;;2.10;;
12675;SDS011;63820;65.654;21.944;2023-09-08T03:04:44;3.00;;;2.40;;
12675;SDS011;63820;65.654;21.944;2023-09-08T03:07:28;2.93;;;2.43;;
12675;SDS011;63820;65.654;21.944;2023-09-08T03:10:12;3.00;;;2.30;;
12675;SDS011;63820;65.654;21.944;2023-09-08T03:12:56;3.97;;;2.57;;
12675;SDS011;63820;65.654;21.944;2023-09-08T03:15:40;3.27;;;2.60;;
12675;SDS011;63820;65.654;21.944;2023-09-08T03:18:24;3.33;;;2.60;;
12675;SDS011;63820;65.654;21.944;2023-09-08T03:21:08;3.57;;;2.70;;
12675;SDS011;63820;65.654;21.944;2023-09-08T03:23:55;3.20;;;2.20;;
12675;SDS011;63820;65.654;21.944;2023-09-08T03:26:39;4.63;;;2.70;;
12675;SDS011;63820;65.654;21.944;2023-09-08T03:29:26;3.40;;;2.60;;
12675;SDS011;63820;65.654;21.944;2023-09-08T03:32:10;3.57;;;2.70;;
12675;SDS011;63820;65.654;21.944;2023-09-08T03:34:54;5.07;;;2.40;;
12675;SDS011;63820;65.654;21.944;2023-09-08T03:37:38;3.93;;;2.20;;
12675;SDS011;63820;65.654;21.944;2023-09-08T03:40:22;3.30;;;2.40;;
12675;SDS011;63820;65.654;21.944;2023-09-08T03:43:06;3.60;;;2.37;;
12675;SDS011;63820;65.654;21.944;2023-09-08T03:45:50;3.50;;;2.47;;
12675;SDS011;63820;65.654;21.944;2023-09-08T03:48:34;3.23;;;2.00;;
12675;SDS011;63820;65.654;21.944;2023-09-08T03:51:18;3.00;;;2.00;;
12675;SDS011;63820;65.654;21.944;2023-09-08T03:54:02;3.13;;;2.30;;
12675;SDS011;63820;65.654;21.944;2023-09-08T03:56:47;2.43;;;2.20;;
12675;SDS011;63820;65.654;21.944;2023-09-08T03:59:31;2.77;;;2.20;;
12675;SDS011;63820;65.654;21.944;2023-09-08T04:02:15;2.67;;;2.10;;
12675;SDS011;63820;65.654;21.944;2023-09-08T04:04:59;3.90;;;2.30;;
12675;SDS011;63820;65.654;21.944;2023-09-08T04:07:44;2.73;;;2.13;;
12675;SDS011;63820;65.654;21.944;2023-09-08T04:10:29;4.93;;;2.40;;
12675;SDS011;63820;65.654;21.944;2023-09-08T04:13:13;3.83;;;2.47;;
12675;SDS011;63820;65.654;21.944;2023-09-08T04:15:57;3.87;;;2.37;;
12675;SDS011;63820;65.654;21.944;2023-09-08T04:18:41;3.63;;;2.30;;
12675;SDS011;63820;65.654;21.944;2023-09-08T04:21:25;4.83;;;2.80;;
12675;SDS011;63820;65.654;21.944;2023-09-08T04:24:09;3.20;;;2.37;;
12675;SDS011;63820;65.654;21.944;2023-09-08T04:26:54;3.60;;;2.00;;
12675;SDS011;63820;65.654;21.944;2023-09-08T04:29:38;3.93;;;2.27;;
12675;SDS011;63820;65.654;21.944;2023-09-08T04:32:22;2.70;;;2.10;;
12675;SDS011;63820;65.654;21.944;2023-09-08T04:35:06;3.73;;;2.20;;
12675;SDS011;63820;65.654;21.944;2023-09-08T04:37:50;3.20;;;2.50;;
12675;SDS011;63820;65.654;21.944;2023-09-08T04:40:34;4.37;;;2.10;;
12675;SDS011;63820;65.654;21.944;2023-09-08T04:43:19;2.17;;;1.90;;
12675;SDS011;63820;65.654;21.944;2023-09-08T04:46:03;3.00;;;2.10;;
12675;SDS011;63820;65.654;21.944;2023-09-08T04:48:47;2.83;;;2.27;;
12675;SDS011;63820;65.654;21.944;2023-09-08T04:51:31;2.60;;;2.27;;
12675;SDS011;63820;65.654;21.944;2023-09-08T04:54:15;2.97;;;2.03;;
12675;SDS011;63820;65.654;21.944;2023-09-08T04:56:59;4.17;;;2.40;;
12675;SDS011;63820;65.654;21.944;2023-09-08T04:59:43;3.10;;;2.10;;
12675;SDS011;63820;65.654;21.944;2023-09-08T05:02:27;2.50;;;1.67;;
12675;SDS011;63820;65.654;21.944;2023-09-08T05:05:11;4.30;;;2.00;;
12675;SDS011;63820;65.654;21.944;2023-09-08T05:07:55;2.37;;;1.90;;
12675;SDS011;63820;65.654;21.944;2023-09-08T05:10:39;3.17;;;1.70;;
12675;SDS011;63820;65.654;21.944;2023-09-08T05:13:23;2.50;;;2.07;;
12675;SDS011;63820;65.654;21.944;2023-09-08T05:16:10;2.10;;;1.90;;
12675;SDS011;63820;65.654;21.944;2023-09-08T05:18:55;3.13;;;2.17;;
12675;SDS011;63820;65.654;21.944;2023-09-08T05:21:39;2.23;;;1.63;;
12675;SDS011;63820;65.654;21.944;2023-09-08T05:24:27;2.87;;;1.90;;
12675;SDS011;63820;65.654;21.944;2023-09-08T05:27:11;2.20;;;1.57;;
12675;SDS011;63820;65.654;21.944;2023-09-08T05:29:55;2.57;;;1.37;;
12675;SDS011;63820;65.654;21.944;2023-09-08T05:32:39;2.27;;;1.73;;
12675;SDS011;63820;65.654;21.944;2023-09-08T05:35:23;3.10;;;1.80;;
12675;SDS011;63820;65.654;21.944;2023-09-08T05:38:07;2.00;;;1.70;;
12675;SDS011;63820;65.654;21.944;2023-09-08T05:40:51;4.27;;;2.00;;
12675;SDS011;63820;65.654;21.944;2023-09-08T05:43:35;2.67;;;1.83;;
12675;SDS011;63820;65.654;21.944;2023-09-08T05:46:19;2.47;;;1.90;;
12675;SDS011;63820;65.654;21.944;2023-09-08T05:49:03;2.53;;;1.60;;
12675;SDS011;63820;65.654;21.944;2023-09-08T05:51:47;3.23;;;1.70;;
12675;SDS011;63820;65.654;21.944;2023-09-08T05:54:32;2.77;;;2.07;;
12675;SDS011;63820;65.654;21.944;2023-09-08T05:57:16;2.00;;;1.60;;
12675;SDS011;63820;65.654;21.944;2023-09-08T06:00:00;2.57;;;1.40;;
12675;SDS011;63820;65.654;21.944;2023-09-08T06:02:46;2.20;;;1.80;;
12675;SDS011;63820;65.654;21.944;2023-09-08T06:05:30;2.97;;;1.30;;
12675;SDS011;63820;65.654;21.944;2023-09-08T06:08:14;2.37;;;1.50;;
12675;SDS011;63820;65.654;21.944;2023-09-08T06:10:57;3.40;;;1.50;;
12675;SDS011;63820;65.654;21.944;2023-09-08T06:13:41;3.00;;;1.67;;
12675;SDS011;63820;65.654;21.944;2023-09-08T06:16:26;1.50;;;1.37;;
12675;SDS011;63820;65.654;21.944;2023-09-08T06:19:11;4.23;;;1.40;;
12675;SDS011;63820;65.654;21.944;2023-09-08T06:21:56;2.87;;;1.47;;
12675;SDS011;63820;65.654;21.944;2023-09-08T06:24:40;2.23;;;1.40;;
12675;SDS011;63820;65.654;21.944;2023-09-08T06:27:23;1.60;;;1.23;;
12675;SDS011;63820;65.654;21.944;2023-09-08T06:30:08;2.00;;;1.60;;
12675;SDS011;63820;65.654;21.944;2023-09-08T06:32:52;1.97;;;1.40;;
12675;SDS011;63820;65.654;21.944;2023-09-08T06:35:36;2.40;;;1.40;;
12675;SDS011;63820;65.654;21.944;2023-09-08T06:38:20;2.27;;;1.30;;
12675;SDS011;63820;65.654;21.944;2023-09-08T06:41:08;1.80;;;1.30;;
12675;SDS011;63820;65.654;21.944;2023-09-08T06:43:54;2.00;;;1.10;;
12675;SDS011;63820;65.654;21.944;2023-09-08T06:46:38;2.30;;;1.40;;
12675;SDS011;63820;65.654;21.944;2023-09-08T06:49:22;1.50;;;1.10;;
12675;SDS011;63820;65.654;21.944;2023-09-08T06:52:06;1.95;;;1.10;;
12675;SDS011;63820;65.654;21.944;2023-09-08T06:54:51;2.63;;;1.50;;
12675;SDS011;63820;65.654;21.944;2023-09-08T06:57:35;1.88;;;1.00;;
12675;SDS011;63820;65.654;21.944;2023-09-08T07:00:19;1.20;;;1.10;;
12675;SDS011;63820;65.654;21.944;2023-09-08T07:03:03;1.27;;;1.17;;
12675;SDS011;63820;65.654;21.944;2023-09-08T07:05:49;1.60;;;1.50;;
12675;SDS011;63820;65.654;21.944;2023-09-08T07:08:34;2.85;;;1.35;;
12675;SDS011;63820;65.654;21.944;2023-09-08T07:11:18;1.63;;;1.35;;
12675;SDS011;63820;65.654;21.944;2023-09-08T07:14:02;2.38;;;1.30;;
12675;SDS011;63820;65.654;21.944;2023-09-08T07:16:46;1.63;;;1.30;;
12675;SDS011;63820;65.654;21.944;2023-09-08T07:19:30;1.30;;;1.20;;
12675;SDS011;63820;65.654;21.944;2023-09-08T07:22:14;1.40;;;1.20;;
12675;SDS011;63820;65.654;21.944;2023-09-08T07:24:58;2.75;;;1.30;;
12675;SDS011;63820;65.654;21.944;2023-09-08T07:27:42;1.15;;;1.00;;
12675;SDS011;63820;65.654;21.944;2023-09-08T07:30:26;1.40;;;1.30;;
12675;SDS011;63820;65.654;21.944;2023-09-08T07:33:10;1.63;;;0.90;;
12675;SDS011;63820;65.654;21.944;2023-09-08T07:35:54;1.45;;;1.30;;
12675;SDS011;63820;65.654;21.944;2023-09-08T07:38:38;1.95;;;1.25;;
12675;SDS011;63820;65.654;21.944;2023-09-08T07:41:22;1.33;;;1.08;;
12675;SDS011;63820;65.654;21.944;2023-09-08T07:44:07;1.58;;;1.48;;
12675;SDS011;63820;65.654;21.944;2023-09-08T07:46:51;2.28;;;1.10;;
12675;SDS011;63820;65.654;21.944;2023-09-08T07:49:35;1.60;;;1.50;;
12675;SDS011;63820;65.654;21.944;2023-09-08T07:52:19;1.20;;;1.10;;
12675;SDS011;63820;65.654;21.944;2023-09-08T07:55:03;1.65;;;1.55;;
12675;SDS011;63820;65.654;21.944;2023-09-08T07:57:48;2.00;;;1.02;;
12675;SDS011;63820;65.654;21.944;2023-09-08T08:00:33;1.23;;;1.13;;
12675;SDS011;63820;65.654;21.944;2023-09-08T08:03:18;1.30;;;1.20;;
12675;SDS011;63820;65.654;21.944;2023-09-08T08:06:01;1.38;;;1.23;;
12675;SDS011;63820;65.654;21.944;2023-09-08T08:08:46;3.13;;;1.63;;
12675;SDS011;63820;65.654;21.944;2023-09-08T08:11:30;1.60;;;1.30;;
12675;SDS011;63820;65.654;21.944;2023-09-08T08:14:14;1.67;;;1.17;;
12675;SDS011;63820;65.654;21.944;2023-09-08T08:16:58;1.50;;;1.40;;
12675;SDS011;63820;65.654;21.944;2023-09-08T08:19:42;1.40;;;1.20;;
12675;SDS011;63820;65.654;21.944;2023-09-08T08:22:27;1.38;;;1.25;;
12675;SDS011;63820;65.654;21.944;2023-09-08T08:25:11;1.95;;;1.30;;
12675;SDS011;63820;65.654;21.944;2023-09-08T08:27:56;1.60;;;1.50;;
12675;SDS011;63820;65.654;21.944;2023-09-08T08:30:41;1.92;;;1.30;;
12675;SDS011;63820;65.654;21.944;2023-09-08T08:33:25;2.05;;;1.30;;
12675;SDS011;63820;65.654;21.944;2023-09-08T08:36:09;1.58;;;1.20;;
12675;SDS011;63820;65.654;21.944;2023-09-08T08:38:53;1.30;;;1.20;;
12675;SDS011;63820;65.654;21.944;2023-09-08T08:41:37;1.88;;;1.38;;
12675;SDS011;63820;65.654;21.944;2023-09-08T08:44:23;1.40;;;1.30;;
12675;SDS011;63820;65.654;21.944;2023-09-08T08:47:08;1.50;;;1.40;;
12675;SDS011;63820;65.654;21.944;2023-09-08T08:49:55;1.40;;;1.30;;
12675;SDS011;63820;65.654;21.944;2023-09-08T08:52:42;1.33;;;1.23;;
12675;SDS011;63820;65.654;21.944;2023-09-08T08:55:27;1.60;;;1.50;;
12675;SDS011;63820;65.654;21.944;2023-09-08T08:58:13;1.35;;;1.25;;
12675;SDS011;63820;65.654;21.944;2023-09-08T09:00:58;1.70;;;1.40;;
12675;SDS011;63820;65.654;21.944;2023-09-08T09:03:43;1.63;;;1.48;;
12675;SDS011;63820;65.654;21.944;2023-09-08T09:06:31;1.60;;;1.35;;
12675;SDS011;63820;65.654;21.944;2023-09-08T09:09:16;2.85;;;1.27;;
12675;SDS011;63820;65.654;21.944;2023-09-08T09:12:00;2.80;;;2.13;;
12675;SDS011;63820;65.654;21.944;2023-09-08T09:14:46;1.55;;;1.33;;
12675;SDS011;63820;65.654;21.944;2023-09-08T09:17:34;1.33;;;1.23;;
12675;SDS011;63820;65.654;21.944;2023-09-08T09:20:19;1.50;;;1.40;;
12675;SDS011;63820;65.654;21.944;2023-09-08T09:23:04;1.95;;;1.60;;
12675;SDS011;63820;65.654;21.944;2023-09-08T09:25:48;1.30;;;1.20;;
12675;SDS011;63820;65.654;21.944;2023-09-08T09:28:32;1.50;;;1.30;;
12675;SDS011;63820;65.654;21.944;2023-09-08T09:31:16;1.38;;;1.08;;
12675;SDS011;63820;65.654;21.944;2023-09-08T09:34:01;1.70;;;1.30;;
12675;SDS011;63820;65.654;21.944;2023-09-08T09:36:50;1.45;;;0.88;;
12675;SDS011;63820;65.654;21.944;2023-09-08T09:39:34;1.20;;;1.10;;
12675;SDS011;63820;65.654;21.944;2023-09-08T09:42:18;1.35;;;1.20;;
12675;SDS011;63820;65.654;21.944;2023-09-08T09:45:04;1.88;;;1.08;;
12675;SDS011;63820;65.654;21.944;2023-09-08T09:47:49;1.38;;;1.23;;
12675;SDS011;63820;65.654;21.944;2023-09-08T09:50:40;1.50;;;1.30;;
12675;SDS011;63820;65.654;21.944;2023-09-08T09:53:26;1.40;;;1.30;;
12675;SDS011;63820;65.654;21.944;2023-09-08T09:56:13;1.15;;;1.10;;
12675;SDS011;63820;65.654;21.944;2023-09-08T09:58:59;2.15;;;1.23;;
12675;SDS011;63820;65.654;21.944;2023-09-08T10:01:46;1.83;;;1.42;;
12675;SDS011;63820;65.654;21.944;2023-09-08T10:04:30;1.58;;;1.20;;
12675;SDS011;63820;65.654;21.944;2023-09-08T10:07:15;2.10;;;1.50;;
12675;SDS011;63820;65.654;21.944;2023-09-08T10:10:00;1.95;;;1.10;;
12675;SDS011;63820;65.654;21.944;2023-09-08T10:12:44;1.48;;;1.23;;
12675;SDS011;63820;65.654;21.944;2023-09-08T10:15:29;1.75;;;1.23;;
12675;SDS011;63820;65.654;21.944;2023-09-08T10:18:15;2.03;;;1.35;;
12675;SDS011;63820;65.654;21.944;2023-09-08T10:21:04;1.25;;;1.00;;
12675;SDS011;63820;65.654;21.944;2023-09-08T10:24:05;1.35;;;1.25;;
12675;SDS011;63820;65.654;21.944;2023-09-08T10:27:04;1.80;;;1.45;;
12675;SDS011;63820;65.654;21.944;2023-09-08T10:29:49;2.85;;;1.17;;
12675;SDS011;63820;65.654;21.944;2023-09-08T10:32:35;1.27;;;1.10;;
12675;SDS011;63820;65.654;21.944;2023-09-08T10:35:20;1.77;;;1.27;;
12675;SDS011;63820;65.654;21.944;2023-09-08T10:44:03;1.77;;;1.40;;
12675;SDS011;63820;65.654;21.944;2023-09-08T10:46:51;1.50;;;1.40;;
12675;SDS011;63820;65.654;21.944;2023-09-08T10:49:36;1.48;;;1.30;;
12675;SDS011;63820;65.654;21.944;2023-09-08T10:52:22;1.45;;;1.30;;
12675;SDS011;63820;65.654;21.944;2023-09-08T10:55:07;1.30;;;1.20;;
12675;SDS011;63820;65.654;21.944;2023-09-08T10:57:52;1.50;;;1.40;;
12675;SDS011;63820;65.654;21.944;2023-09-08T11:00:45;1.10;;;1.00;;
12675;SDS011;63820;65.654;21.944;2023-09-08T11:06:21;1.52;;;1.40;;
12675;SDS011;63820;65.654;21.944;2023-09-08T11:09:06;1.38;;;1.23;;
12675;SDS011;63820;65.654;21.944;2023-09-08T11:11:51;2.33;;;1.40;;
12675;SDS011;63820;65.654;21.944;2023-09-08T11:14:35;1.75;;;1.30;;
12675;SDS011;63820;65.654;21.944;2023-09-08T11:17:19;1.52;;;1.30;;
12675;SDS011;63820;65.654;21.944;2023-09-08T11:20:04;1.48;;;1.30;;
12675;SDS011;63820;65.654;21.944;2023-09-08T11:22:52;1.40;;;1.30;;
12675;SDS011;63820;65.654;21.944;2023-09-08T11:25:36;1.60;;;1.50;;
12675;SDS011;63820;65.654;21.944;2023-09-08T11:28:21;2.78;;;1.60;;
12675;SDS011;63820;65.654;21.944;2023-09-08T11:31:06;1.75;;;1.50;;
12675;SDS011;63820;65.654;21.944;2023-09-08T11:33:54;1.95;;;1.70;;
12675;SDS011;63820;65.654;21.944;2023-09-08T11:36:39;1.85;;;1.65;;
12675;SDS011;63820;65.654;21.944;2023-09-08T11:39:23;1.88;;;1.60;;
12675;SDS011;63820;65.654;21.944;2023-09-08T11:42:09;2.65;;;1.80;;
12675;SDS011;63820;65.654;21.944;2023-09-08T11:44:56;2.88;;;1.95;;
12675;SDS011;63820;65.654;21.944;2023-09-08T11:47:41;1.60;;;1.50;;
12675;SDS011;63820;65.654;21.944;2023-09-08T11:50:26;2.97;;;1.95;;
12675;SDS011;63820;65.654;21.944;2023-09-08T11:53:10;2.60;;;1.80;;
12675;SDS011;63820;65.654;21.944;2023-09-08T11:55:55;2.17;;;1.98;;
12675;SDS011;63820;65.654;21.944;2023-09-08T11:58:39;2.65;;;2.15;;
12675;SDS011;63820;65.654;21.944;2023-09-08T12:01:25;2.40;;;2.20;;
12675;SDS011;63820;65.654;21.944;2023-09-08T12:04:16;2.50;;;2.30;;
12675;SDS011;63820;65.654;21.944;2023-09-08T12:07:03;2.45;;;2.25;;
12675;SDS011;63820;65.654;21.944;2023-09-08T12:09:47;2.65;;;2.28;;
12675;SDS011;63820;65.654;21.944;2023-09-08T12:12:32;2.40;;;2.20;;
12675;SDS011;63820;65.654;21.944;2023-09-08T12:18:19;2.75;;;2.47;;
12675;SDS011;63820;65.654;21.944;2023-09-08T12:21:21;2.70;;;2.25;;
12675;SDS011;63820;65.654;21.944;2023-09-08T12:24:05;2.85;;;2.00;;
12675;SDS011;63820;65.654;21.944;2023-09-08T12:26:49;2.88;;;2.30;;
12675;SDS011;63820;65.654;21.944;2023-09-08T12:29:33;2.30;;;2.10;;
12675;SDS011;63820;65.654;21.944;2023-09-08T12:32:18;2.47;;;2.20;;
12675;SDS011;63820;65.654;21.944;2023-09-08T12:35:03;2.28;;;2.05;;
12675;SDS011;63820;65.654;21.944;2023-09-08T12:37:51;2.20;;;1.98;;
12675;SDS011;63820;65.654;21.944;2023-09-08T12:40:46;2.38;;;2.17;;
12675;SDS011;63820;65.654;21.944;2023-09-08T12:43:30;3.40;;;2.45;;
12675;SDS011;63820;65.654;21.944;2023-09-08T12:46:16;5.10;;;2.08;;
12675;SDS011;63820;65.654;21.944;2023-09-08T12:49:01;2.20;;;1.98;;
12675;SDS011;63820;65.654;21.944;2023-09-08T12:51:46;1.83;;;1.70;;
12675;SDS011;63820;65.654;21.944;2023-09-08T12:54:30;2.33;;;2.00;;
12675;SDS011;63820;65.654;21.944;2023-09-08T12:57:14;2.75;;;1.70;;
12675;SDS011;63820;65.654;21.944;2023-09-08T12:59:58;2.88;;;1.90;;
12675;SDS011;63820;65.654;21.944;2023-09-08T13:02:43;2.47;;;1.73;;
12675;SDS011;63820;65.654;21.944;2023-09-08T13:05:28;2.10;;;1.70;;
12675;SDS011;63820;65.654;21.944;2023-09-08T13:08:12;1.75;;;1.60;;
12675;SDS011;63820;65.654;21.944;2023-09-08T13:10:58;1.83;;;1.70;;
12675;SDS011;63820;65.654;21.944;2023-09-08T13:13:42;1.70;;;1.52;;
12675;SDS011;63820;65.654;21.944;2023-09-08T13:16:26;2.13;;;1.52;;
12675;SDS011;63820;65.654;21.944;2023-09-08T13:19:10;3.03;;;1.52;;
12675;SDS011;63820;65.654;21.944;2023-09-08T13:21:55;2.05;;;1.30;;
12675;SDS011;63820;65.654;21.944;2023-09-08T13:24:39;1.45;;;1.30;;
12675;SDS011;63820;65.654;21.944;2023-09-08T13:27:24;1.80;;;1.50;;
12675;SDS011;63820;65.654;21.944;2023-09-08T13:30:09;3.83;;;1.42;;
12675;SDS011;63820;65.654;21.944;2023-09-08T13:32:53;1.95;;;1.30;;
12675;SDS011;63820;65.654;21.944;2023-09-08T13:35:39;1.85;;;1.40;;
12675;SDS011;63820;65.654;21.944;2023-09-08T13:38:23;1.40;;;1.20;;
12675;SDS011;63820;65.654;21.944;2023-09-08T13:41:07;1.50;;;1.40;;
12675;SDS011;63820;65.654;21.944;2023-09-08T13:43:51;1.20;;;1.10;;
12675;SDS011;63820;65.654;21.944;2023-09-08T13:46:35;1.30;;;1.20;;
12675;SDS011;63820;65.654;21.944;2023-09-08T13:49:19;1.60;;;1.33;;
12675;SDS011;63820;65.654;21.944;2023-09-08T13:52:03;1.73;;;1.02;;
12675;SDS011;63820;65.654;21.944;2023-09-08T13:54:48;1.35;;;1.25;;
12675;SDS011;63820;65.654;21.944;2023-09-08T13:57:32;1.40;;;1.30;;
12675;SDS011;63820;65.654;21.944;2023-09-08T14:00:19;2.85;;;1.30;;
12675;SDS011;63820;65.654;21.944;2023-09-08T14:03:03;1.50;;;1.30;;
12675;SDS011;63820;65.654;21.944;2023-09-08T14:05:48;2.20;;;1.17;;
12675;SDS011;63820;65.654;21.944;2023-09-08T14:08:32;1.77;;;1.58;;
12675;SDS011;63820;65.654;21.944;2023-09-08T14:11:16;1.73;;;1.30;;
12675;SDS011;63820;65.654;21.944;2023-09-08T14:14:00;3.13;;;1.30;;
12675;SDS011;63820;65.654;21.944;2023-09-08T14:16:44;2.17;;;1.35;;
12675;SDS011;63820;65.654;21.944;2023-09-08T14:19:28;1.90;;;1.45;;
12675;SDS011;63820;65.654;21.944;2023-09-08T14:22:12;2.15;;;1.50;;
12675;SDS011;63820;65.654;21.944;2023-09-08T14:24:56;1.70;;;1.40;;
12675;SDS011;63820;65.654;21.944;2023-09-08T14:27:40;1.85;;;1.40;;
12675;SDS011;63820;65.654;21.944;2023-09-08T14:30:24;1.50;;;1.40;;
12675;SDS011;63820;65.654;21.944;2023-09-08T14:33:10;1.63;;;1.40;;
12675;SDS011;63820;65.654;21.944;2023-09-08T14:35:54;2.22;;;1.67;;
12675;SDS011;63820;65.654;21.944;2023-09-08T14:38:39;2.97;;;1.27;;
12675;SDS011;63820;65.654;21.944;2023-09-08T14:41:23;1.50;;;1.40;;
12675;SDS011;63820;65.654;21.944;2023-09-08T14:44:07;1.73;;;1.40;;
12675;SDS011;63820;65.654;21.944;2023-09-08T14:46:51;1.97;;;1.40;;
12675;SDS011;63820;65.654;21.944;2023-09-08T14:49:35;1.57;;;1.47;;
12675;SDS011;63820;65.654;21.944;2023-09-08T14:52:19;1.63;;;1.33;;
12675;SDS011;63820;65.654;21.944;2023-09-08T14:55:04;1.93;;;1.60;;
12675;SDS011;63820;65.654;21.944;2023-09-08T14:57:48;1.70;;;1.60;;
12675;SDS011;63820;65.654;21.944;2023-09-08T15:00:32;2.57;;;1.50;;
12675;SDS011;63820;65.654;21.944;2023-09-08T15:03:16;1.93;;;1.70;;
12675;SDS011;63820;65.654;21.944;2023-09-08T15:06:01;2.10;;;1.47;;
12675;SDS011;63820;65.654;21.944;2023-09-08T15:08:45;1.73;;;1.40;;
12675;SDS011;63820;65.654;21.944;2023-09-08T15:11:30;2.03;;;1.60;;
12675;SDS011;63820;65.654;21.944;2023-09-08T15:14:14;2.67;;;1.50;;
12675;SDS011;63820;65.654;21.944;2023-09-08T15:16:58;3.60;;;1.60;;
12675;SDS011;63820;65.654;21.944;2023-09-08T15:19:42;2.63;;;1.80;;
12675;SDS011;63820;65.654;21.944;2023-09-08T15:22:26;2.37;;;1.50;;
12675;SDS011;63820;65.654;21.944;2023-09-08T15:25:10;1.77;;;1.57;;
12675;SDS011;63820;65.654;21.944;2023-09-08T15:27:54;1.57;;;1.47;;
12675;SDS011;63820;65.654;21.944;2023-09-08T15:30:38;2.90;;;1.80;;
12675;SDS011;63820;65.654;21.944;2023-09-08T15:33:22;1.93;;;1.60;;
12675;SDS011;63820;65.654;21.944;2023-09-08T15:36:07;2.33;;;1.80;;
12675;SDS011;63820;65.654;21.944;2023-09-08T15:38:51;1.63;;;1.50;;
12675;SDS011;63820;65.654;21.944;2023-09-08T15:41:35;2.70;;;2.10;;
12675;SDS011;63820;65.654;21.944;2023-09-08T15:44:19;2.13;;;1.70;;
12675;SDS011;63820;65.654;21.944;2023-09-08T15:47:03;2.00;;;1.50;;
12675;SDS011;63820;65.654;21.944;2023-09-08T15:49:47;1.57;;;1.47;;
12675;SDS011;63820;65.654;21.944;2023-09-08T15:52:31;2.50;;;1.70;;
12675;SDS011;63820;65.654;21.944;2023-09-08T15:55:15;3.07;;;2.00;;
12675;SDS011;63820;65.654;21.944;2023-09-08T15:58:00;2.30;;;1.47;;
12675;SDS011;63820;65.654;21.944;2023-09-08T16:00:44;1.60;;;1.50;;
12675;SDS011;63820;65.654;21.944;2023-09-08T16:03:28;2.83;;;1.80;;
12675;SDS011;63820;65.654;21.944;2023-09-08T16:06:12;1.97;;;1.50;;
12675;SDS011;63820;65.654;21.944;2023-09-08T16:08:56;2.03;;;1.43;;
12675;SDS011;63820;65.654;21.944;2023-09-08T16:11:40;2.10;;;1.73;;
12675;SDS011;63820;65.654;21.944;2023-09-08T16:14:24;2.00;;;1.70;;
12675;SDS011;63820;65.654;21.944;2023-09-08T16:17:08;3.63;;;1.77;;
12675;SDS011;63820;65.654;21.944;2023-09-08T16:19:52;1.80;;;1.60;;
12675;SDS011;63820;65.654;21.944;2023-09-08T16:22:36;3.00;;;1.90;;
12675;SDS011;63820;65.654;21.944;2023-09-08T16:25:20;2.20;;;1.80;;
12675;SDS011;63820;65.654;21.944;2023-09-08T16:28:04;1.73;;;1.60;;
12675;SDS011;63820;65.654;21.944;2023-09-08T16:30:49;2.27;;;1.90;;